Glendale, AZ (85302)

7:15 PM MST on November 24, 2014 (GMT -0700)
Glendale Community College | Change Station
CLOSE
Current Station
Personal Weather Station
Location: Glendale, AZ
Elevation: 1173 ft
Nearby Weather Stations

Elev 1173 ft 33.57 °N, 112.19 °W | Updated 57 seconds ago

Clear
Clear
62.4 °F
Feels Like 62.4 °F
N
1.0
Wind Variable Wind from SSE
Gusts 2.0 mph

Today
High -- | Low -- °F
--% Chance of Precip.
Yesterday
High -- | Low -- °F
Precip. -- in
7:08 AM 5:21 PM
Waxing Crescent, 8% visible
Pressure 30.20 in
Visibility 20.0 miles
Clouds Few 25000 ft
Dew Point -3 °F
Humidity 7%
Rainfall 0.00 in
Snow Depth Not available.
UV 0.0 out of 12
Pollen 3.30 out of 12
Air Quality Not available.
Flu Activity Not available.
METAR KGEU 250147Z 28005KT 20SM FEW250 17/M12 A3020

More Conditions Fewer Conditions

Pressure 30.20 in
Visibility 20.0 miles
Clouds Few 25000 ft
Dew Point -3 °F
Humidity 7%
Rainfall 0.00 in
Snow Depth Not available.
UV 0.0 out of 12
Pollen 3.30 out of 12
Air Quality Not available.
Flu Activity Not available.
METAR KGEU 250147Z 28005KT 20SM FEW250 17/M12 A3020

More Conditions Fewer Conditions

10-Day Weather Forecast

Almanac

Astronomy

Nov. 24, 2014 Rise Set
Actual Time
Civil Twilight
Nautical Twilight
Astronomical Twilight
Moon
Length of Visible Light
Length of Day
Tomorrow will be .
, % of the Moon is Illuminated

Today's Extremes

State Highs State Lows

Community

WunderPhotos

Upload Photos

1,773,460 photos uploaded!

WunderBlogs® & News

Nearby

Air Quality

  Air Quality AQ Index Pollutant
Not available.

Snow Depth

Station Depth Elevation

Earthquake Activity

City Distance Mag. Time & Date
Minimum magnitude displayed is 2.5.

Coastal Water Temperatures

Place Temperature

Nearby Weather Stations